createdAt,value
2019-05-12T00:02:02.702Z,18.82
2019-05-12T00:04:32.826Z,19.55
2019-05-12T00:07:02.973Z,19.87
2019-05-12T00:09:33.193Z,19.80
2019-05-12T00:12:04.470Z,21.45
2019-05-12T00:14:34.589Z,23.80
2019-05-12T00:17:04.689Z,19.67
2019-05-12T00:19:34.754Z,20.10
2019-05-12T00:22:04.869Z,20.85
2019-05-12T00:24:35.005Z,19.73
2019-05-12T00:27:09.493Z,22.65
2019-05-12T00:29:39.692Z,25.72
2019-05-12T00:32:09.877Z,26.97
2019-05-12T00:34:40.060Z,27.58
2019-05-12T00:37:10.240Z,30.08
2019-05-12T00:39:40.407Z,32.50
2019-05-12T00:42:10.617Z,32.00
2019-05-12T00:44:40.797Z,37.15
2019-05-12T00:47:11.013Z,32.23
2019-05-12T00:49:41.160Z,37.75
2019-05-12T00:52:11.373Z,38.38
2019-05-12T00:54:41.561Z,40.75
2019-05-12T00:57:11.750Z,39.40
2019-05-12T00:59:41.978Z,39.48
2019-05-12T01:02:12.085Z,39.67
2019-05-12T01:04:42.162Z,36.73
2019-05-12T01:07:12.336Z,36.73
2019-05-12T01:09:42.364Z,42.50
2019-05-12T01:12:12.570Z,40.85
2019-05-12T01:14:43.691Z,37.65
2019-05-12T01:17:13.829Z,40.83
2019-05-12T01:19:43.916Z,38.98
2019-05-12T01:22:14.101Z,36.10
2019-05-12T01:24:44.296Z,37.48
2019-05-12T01:27:14.542Z,35.15
2019-05-12T01:29:44.673Z,35.03
2019-05-12T01:32:19.496Z,39.60
2019-05-12T01:34:49.573Z,34.27
2019-05-12T01:37:22.734Z,34.38
2019-05-12T01:39:53.719Z,35.75
2019-05-12T01:42:23.830Z,40.60
2019-05-12T01:44:53.988Z,41.98
2019-05-12T01:47:24.195Z,42.15
2019-05-12T01:49:57.965Z,44.10
2019-05-12T01:52:28.573Z,50.58
2019-05-12T01:54:59.178Z,49.13
2019-05-12T01:57:30.395Z,44.75
2019-05-12T02:00:00.641Z,43.10
2019-05-12T02:02:30.812Z,39.18
2019-05-12T02:05:02.582Z,38.73
2019-05-12T02:07:38.421Z,40.52
2019-05-12T02:10:09.296Z,41.58
2019-05-12T02:12:39.834Z,39.63
2019-05-12T02:15:10.226Z,38.15
2019-05-12T02:17:40.404Z,34.43
2019-05-12T02:20:10.725Z,30.82
2019-05-12T02:22:40.947Z,33.88
2019-05-12T02:25:11.209Z,34.98
2019-05-12T02:27:41.338Z,32.83
2019-05-12T02:30:11.920Z,30.70
2019-05-12T02:32:52.234Z,29.77
2019-05-12T02:35:16.180Z,29.18
2019-05-12T02:37:46.721Z,26.52
2019-05-12T02:40:16.952Z,22.90
2019-05-12T02:42:48.161Z,25.88
2019-05-12T02:45:18.386Z,25.10
2019-05-12T02:47:48.571Z,26.73
2019-05-12T02:50:20.229Z,22.37
2019-05-12T02:52:50.991Z,23.52
2019-05-12T02:55:21.379Z,23.45
2019-05-12T02:57:55.009Z,23.75
2019-05-12T03:00:24.279Z,23.10
2019-05-12T03:02:56.127Z,22.45
2019-05-12T03:05:27.243Z,22.40
2019-05-12T03:07:58.212Z,23.83
2019-05-12T03:10:28.393Z,24.17
2019-05-12T03:12:58.556Z,28.35
2019-05-12T03:15:28.647Z,28.80
2019-05-12T03:17:58.697Z,25.30
2019-05-12T03:20:28.926Z,26.90
2019-05-12T03:22:59.131Z,25.50
2019-05-12T03:25:30.173Z,26.77
2019-05-12T03:28:00.454Z,20.82
2019-05-12T03:30:37.026Z,25.43
2019-05-12T03:33:09.569Z,28.45
2019-05-12T03:38:05.892Z,24.32
2019-05-12T03:40:38.616Z,23.98
2019-05-12T03:43:08.963Z,22.05
2019-05-12T03:45:39.139Z,25.45
2019-05-12T03:48:09.361Z,24.60
2019-05-12T03:50:39.529Z,24.70
2019-05-12T03:53:11.089Z,23.22
2019-05-12T03:55:46.402Z,24.65
2019-05-12T04:00:44.869Z,23.85
2019-05-12T04:03:15.565Z,23.32
2019-05-12T04:05:45.961Z,23.40
2019-05-12T04:08:16.282Z,22.30
2019-05-12T04:10:46.442Z,21.48
2019-05-12T04:13:16.653Z,22.87
2019-05-12T04:15:46.751Z,20.27
2019-05-12T04:18:16.934Z,20.52
2019-05-12T04:20:47.097Z,20.88
2019-05-12T04:23:17.233Z,18.42
2019-05-12T04:25:52.838Z,20.45
2019-05-12T04:30:49.283Z,22.42
2019-05-12T04:33:19.482Z,23.50
2019-05-12T04:35:49.733Z,25.68
2019-05-12T04:38:19.874Z,28.60
2019-05-12T04:40:49.908Z,29.37
2019-05-12T04:43:20.024Z,27.42
2019-05-12T04:45:50.231Z,27.60
2019-05-12T04:48:21.620Z,29.77
2019-05-12T04:50:54.810Z,34.30
2019-05-12T04:53:25.208Z,32.73
2019-05-12T04:56:07.513Z,34.50
2019-05-12T04:58:27.165Z,31.23
2019-05-12T05:00:57.226Z,30.35
2019-05-12T05:03:27.406Z,33.65
2019-05-12T05:05:57.642Z,27.60
2019-05-12T05:08:27.702Z,30.68
2019-05-12T05:10:57.738Z,29.07
2019-05-12T05:13:27.808Z,30.10
2019-05-12T05:18:28.629Z,28.42
2019-05-12T05:20:58.698Z,27.35
2019-05-12T05:23:28.753Z,26.30
2019-05-12T05:25:58.873Z,25.68
2019-05-12T05:28:28.969Z,24.40
2019-05-12T05:30:59.057Z,24.25
2019-05-12T05:33:29.069Z,21.62
2019-05-12T05:35:59.253Z,18.48
2019-05-12T05:38:29.330Z,16.77
2019-05-12T05:40:59.732Z,16.77
2019-05-12T05:43:33.222Z,15.80
2019-05-12T05:48:35.187Z,15.68
2019-05-12T05:53:36.088Z,14.93
2019-05-12T05:56:06.172Z,13.98
2019-05-12T05:58:40.211Z,14.87
2019-05-12T06:01:08.997Z,13.43
2019-05-12T06:03:39.168Z,12.50
2019-05-12T06:06:12.347Z,12.15
2019-05-12T06:11:14.773Z,12.23
2019-05-12T06:13:44.147Z,11.35
2019-05-12T06:16:20.104Z,12.20
2019-05-12T06:18:45.349Z,11.70
2019-05-12T06:21:15.386Z,12.25
2019-05-12T06:23:45.446Z,10.98
2019-05-12T06:28:47.325Z,13.58
2019-05-12T06:31:18.956Z,14.23
2019-05-12T06:33:49.073Z,13.22
2019-05-12T06:36:21.898Z,14.15
2019-05-12T06:38:50.887Z,13.80
2019-05-12T06:41:23.659Z,15.13
2019-05-12T06:46:25.838Z,15.05
2019-05-12T06:48:55.165Z,14.03
2019-05-12T06:51:25.923Z,15.50
2019-05-12T06:53:56.141Z,14.15
2019-05-12T06:56:26.253Z,14.35
2019-05-12T06:59:00.914Z,14.58
2019-05-12T07:01:29.089Z,12.80
2019-05-12T07:04:00.591Z,12.98
2019-05-12T07:06:30.796Z,12.00
2019-05-12T07:09:06.034Z,12.82
2019-05-12T07:14:07.800Z,11.68
2019-05-12T07:16:35.377Z,14.63
2019-05-12T07:19:07.644Z,14.70
2019-05-12T07:21:37.182Z,12.82
2019-05-12T07:24:11.101Z,14.28
2019-05-12T07:26:39.221Z,17.90
2019-05-12T07:29:09.398Z,14.15
2019-05-12T07:31:39.498Z,13.53
2019-05-12T07:34:09.722Z,13.75
2019-05-12T07:36:40.077Z,9.85
2019-05-12T07:39:10.121Z,11.00
2019-05-12T07:41:42.538Z,11.53
2019-05-12T07:44:14.297Z,10.58
2019-05-12T07:46:47.817Z,11.30
2019-05-12T07:49:16.407Z,10.03
2019-05-12T07:51:49.922Z,9.10
2019-05-12T07:54:18.318Z,9.90
2019-05-12T07:56:48.437Z,9.80
2019-05-12T07:59:18.424Z,9.70
2019-05-12T08:01:51.855Z,9.58
2019-05-12T08:06:49.142Z,9.38
2019-05-12T08:09:24.050Z,10.23
2019-05-12T08:11:50.920Z,8.00
2019-05-12T08:14:25.824Z,11.00
2019-05-12T08:16:54.298Z,9.58
2019-05-12T08:21:55.200Z,7.80
2019-05-12T08:24:25.397Z,8.20
2019-05-12T08:26:59.620Z,7.25
2019-05-12T08:29:27.327Z,9.10
2019-05-12T08:31:58.034Z,8.18
2019-05-12T08:34:28.017Z,8.03
2019-05-12T08:36:58.198Z,8.68
2019-05-12T08:39:28.359Z,9.35
2019-05-12T08:41:58.434Z,9.60
2019-05-12T08:44:33.389Z,8.08
2019-05-12T08:47:00.270Z,8.10
2019-05-12T08:49:34.039Z,8.43
2019-05-12T08:54:33.640Z,8.83
2019-05-12T08:57:04.056Z,8.63
2019-05-12T08:59:34.308Z,14.47
2019-05-12T09:02:07.396Z,17.42
2019-05-12T09:04:36.143Z,9.03
2019-05-12T09:07:06.353Z,6.97
2019-05-12T09:09:36.410Z,8.75
2019-05-12T09:12:06.630Z,9.10
2019-05-12T09:14:41.213Z,9.13
2019-05-12T09:17:08.641Z,8.08
2019-05-12T09:19:39.913Z,9.80
2019-05-12T09:22:16.869Z,8.65
2019-05-12T09:24:44.557Z,13.25
2019-05-12T09:27:14.731Z,11.15
2019-05-12T09:29:44.789Z,11.10
2019-05-12T09:32:14.809Z,9.20
2019-05-12T09:34:52.572Z,10.43
2019-05-12T09:37:16.694Z,9.65
2019-05-12T09:39:47.785Z,8.30
2019-05-12T09:42:19.284Z,9.70
2019-05-12T09:44:50.241Z,9.40
2019-05-12T09:47:26.700Z,8.58
2019-05-12T09:49:53.559Z,9.33
2019-05-12T09:52:27.144Z,13.30
2019-05-12T09:57:24.908Z,8.63
2019-05-12T09:59:58.229Z,7.60
2019-05-12T10:02:26.809Z,7.85
2019-05-12T10:05:00.678Z,7.87
2019-05-12T10:07:28.686Z,10.40
2019-05-12T10:09:59.212Z,8.15
2019-05-12T10:15:00.239Z,7.92
2019-05-12T10:17:30.504Z,6.28
2019-05-12T10:20:00.609Z,6.70
2019-05-12T10:22:39.742Z,5.70
2019-05-12T10:25:08.602Z,5.85
2019-05-12T10:30:12.378Z,7.30
2019-05-12T10:32:43.657Z,6.55
2019-05-12T10:35:21.047Z,5.33
2019-05-12T10:37:47.484Z,5.67
2019-05-12T10:40:18.001Z,6.43
2019-05-12T10:42:49.591Z,5.22
2019-05-12T10:45:23.523Z,4.97
2019-05-12T10:47:53.413Z,4.55
2019-05-12T10:50:23.550Z,4.40
2019-05-12T10:52:53.718Z,4.60
2019-05-12T10:55:24.893Z,5.53
2019-05-12T10:58:01.482Z,5.55
2019-05-12T11:00:26.949Z,5.25
2019-05-12T11:03:01.518Z,4.92
2019-05-12T11:05:28.871Z,4.78
2019-05-12T11:08:00.233Z,5.55
2019-05-12T11:10:30.641Z,5.20
2019-05-12T11:13:05.789Z,4.95
2019-05-12T11:15:34.401Z,4.80
2019-05-12T11:18:05.809Z,5.72
2019-05-12T11:23:05.209Z,7.40
2019-05-12T11:25:35.299Z,7.28
2019-05-12T11:28:05.409Z,7.17
2019-05-12T11:30:35.489Z,6.78
2019-05-12T11:33:05.595Z,9.05
2019-05-12T11:35:35.770Z,7.45
2019-05-12T11:38:05.842Z,8.05
2019-05-12T11:40:35.917Z,7.28
2019-05-12T11:43:06.038Z,6.15
2019-05-12T11:45:36.534Z,7.53
2019-05-12T11:48:10.141Z,7.37
2019-05-12T11:50:40.408Z,7.30
2019-05-12T11:53:10.330Z,6.85
2019-05-12T11:55:40.318Z,5.45
2019-05-12T11:58:11.693Z,6.25
2019-05-12T12:00:44.206Z,6.12
2019-05-12T12:03:17.862Z,6.37
2019-05-12T12:05:46.266Z,5.62
2019-05-12T12:08:16.432Z,6.22
2019-05-12T12:10:49.153Z,5.78
2019-05-12T12:13:19.271Z,5.97
2019-05-12T12:15:52.789Z,6.37
2019-05-12T12:18:23.552Z,6.15
2019-05-12T12:21:02.400Z,6.35
2019-05-12T12:23:25.695Z,10.05
2019-05-12T12:25:55.905Z,8.43
2019-05-12T12:28:26.100Z,10.15
2019-05-12T12:31:00.317Z,8.88
2019-05-12T12:33:30.947Z,7.53
2019-05-12T12:36:00.870Z,7.47
2019-05-12T12:38:33.135Z,8.60
2019-05-12T12:41:03.872Z,6.45
2019-05-12T12:43:34.182Z,7.10
2019-05-12T12:46:10.601Z,40.08
2019-05-12T12:48:37.619Z,16.48
2019-05-12T12:51:07.741Z,7.53
2019-05-12T12:53:37.823Z,6.67
2019-05-12T12:56:07.781Z,8.95
2019-05-12T12:58:37.946Z,7.37
2019-05-12T13:01:08.126Z,8.95
2019-05-12T13:03:38.334Z,12.43
2019-05-12T13:06:08.537Z,13.35
2019-05-12T13:08:38.689Z,15.75
2019-05-12T13:11:08.769Z,21.07
2019-05-12T13:13:38.841Z,21.25
2019-05-12T13:16:09.019Z,12.70
2019-05-12T13:18:39.449Z,11.38
2019-05-12T13:21:09.526Z,11.35
2019-05-12T13:23:41.207Z,15.78
2019-05-12T13:28:45.519Z,12.95
2019-05-12T13:31:15.732Z,14.18
2019-05-12T13:33:44.324Z,14.90
2019-05-12T13:36:14.360Z,15.28
2019-05-12T13:38:44.527Z,16.12
2019-05-12T13:41:17.966Z,20.35
2019-05-12T13:43:54.713Z,28.90
2019-05-12T13:48:49.821Z,17.35
2019-05-12T13:51:18.906Z,14.83
2019-05-12T13:53:50.323Z,17.50
2019-05-12T13:56:27.459Z,15.65
2019-05-12T14:01:24.855Z,17.92
2019-05-12T14:06:31.989Z,16.85
2019-05-12T14:08:57.495Z,13.25
2019-05-12T14:11:27.555Z,15.60
2019-05-12T14:13:57.790Z,14.78
2019-05-12T14:16:27.972Z,14.93
2019-05-12T14:19:00.408Z,13.53
2019-05-12T14:24:00.578Z,13.35
2019-05-12T14:26:30.646Z,13.55
2019-05-12T14:29:00.846Z,14.28
2019-05-12T14:31:36.306Z,16.07
2019-05-12T14:34:04.343Z,14.40
2019-05-12T14:36:34.149Z,14.78
2019-05-12T14:39:10.150Z,14.80
2019-05-12T14:41:38.408Z,15.45
2019-05-12T14:44:08.475Z,16.07
2019-05-12T14:46:40.123Z,16.30
2019-05-12T14:51:39.392Z,8.58
2019-05-12T14:54:09.581Z,9.50
2019-05-12T14:56:47.218Z,8.45
2019-05-12T15:01:56.630Z,10.63
2019-05-12T15:04:13.309Z,9.98
2019-05-12T15:06:44.293Z,6.92
2019-05-12T15:09:20.041Z,8.93
2019-05-12T15:11:47.213Z,16.05
2019-05-12T15:14:17.458Z,24.63
2019-05-12T15:16:47.529Z,15.98
2019-05-12T15:19:20.739Z,11.80
2019-05-12T15:24:19.168Z,14.28
2019-05-12T15:26:50.568Z,14.65
2019-05-12T15:29:23.282Z,13.93
2019-05-12T15:31:56.713Z,14.30
2019-05-12T15:36:56.575Z,12.10
2019-05-12T15:41:56.632Z,13.05
2019-05-12T15:44:31.525Z,11.40
2019-05-12T15:46:58.998Z,11.48
2019-05-12T15:49:29.055Z,13.65
2019-05-12T15:51:59.254Z,12.82
2019-05-12T15:54:31.030Z,12.70
2019-05-12T15:59:31.527Z,14.10
2019-05-12T16:02:09.540Z,14.28
2019-05-12T16:07:04.112Z,14.28
2019-05-12T16:09:34.621Z,14.07
2019-05-12T16:12:09.452Z,14.45
2019-05-12T16:17:07.153Z,16.15
2019-05-12T16:19:37.370Z,15.98
2019-05-12T16:22:07.571Z,16.37
2019-05-12T16:24:37.751Z,17.37
2019-05-12T16:27:07.955Z,20.15
2019-05-12T16:29:38.966Z,21.12
2019-05-12T16:34:44.871Z,22.52
2019-05-12T16:37:14.124Z,24.63
2019-05-12T16:39:47.378Z,22.40
2019-05-12T16:44:45.551Z,21.23
2019-05-12T16:47:18.681Z,22.20
2019-05-12T16:52:16.537Z,23.92
2019-05-12T16:54:46.804Z,21.93
2019-05-12T16:57:18.242Z,25.48
2019-05-12T16:59:53.339Z,25.60
2019-05-12T17:02:20.204Z,24.02
2019-05-12T17:04:50.453Z,27.22
2019-05-12T17:07:21.018Z,26.40
2019-05-12T17:09:51.556Z,29.07
2019-05-12T17:12:23.900Z,27.42
2019-05-12T17:14:53.355Z,27.58
2019-05-12T17:17:24.634Z,30.12
2019-05-12T17:19:55.899Z,28.47
2019-05-12T17:22:26.035Z,29.55
2019-05-12T17:24:57.315Z,28.95
2019-05-12T17:27:28.538Z,29.40
2019-05-12T17:29:58.730Z,33.18
2019-05-12T17:32:28.861Z,29.55
2019-05-12T17:34:58.942Z,34.25
2019-05-12T17:37:31.479Z,35.58
2019-05-12T17:40:00.649Z,35.52
2019-05-12T17:42:33.396Z,36.60
2019-05-12T17:45:03.974Z,37.42
2019-05-12T17:47:34.198Z,36.38
2019-05-12T17:50:09.949Z,36.80
2019-05-12T17:52:37.950Z,32.95
2019-05-12T17:55:10.632Z,33.92
2019-05-12T18:00:10.723Z,37.45
2019-05-12T18:05:12.202Z,37.30
2019-05-12T18:07:44.084Z,35.35
2019-05-12T18:10:13.774Z,38.38
2019-05-12T18:12:45.145Z,43.48
2019-05-12T18:17:49.900Z,38.17
2019-05-12T18:20:17.478Z,34.65
2019-05-12T18:22:47.601Z,36.70
2019-05-12T18:25:22.033Z,39.40
2019-05-12T18:27:50.981Z,39.27
2019-05-12T18:32:57.717Z,38.85
2019-05-12T18:35:23.646Z,41.40
2019-05-12T18:37:54.179Z,38.50
2019-05-12T18:40:27.793Z,43.02
2019-05-12T18:45:25.524Z,41.35
2019-05-12T18:47:55.584Z,41.37
2019-05-12T18:50:27.211Z,45.17
2019-05-12T18:52:57.438Z,43.45
2019-05-12T18:55:29.271Z,42.48
2019-05-12T19:00:28.702Z,49.67
2019-05-12T19:02:59.596Z,45.58
2019-05-12T19:05:31.107Z,48.95
2019-05-12T19:08:03.538Z,51.87
2019-05-12T19:13:06.672Z,55.45
2019-05-12T19:15:36.439Z,53.58
2019-05-12T19:18:06.756Z,53.78
2019-05-12T19:20:37.812Z,48.68
2019-05-12T19:23:07.994Z,53.20
2019-05-12T19:25:40.702Z,59.88
2019-05-12T19:30:43.734Z,96.22
2019-05-12T19:33:13.906Z,79.27
2019-05-12T19:35:43.921Z,74.50
2019-05-12T19:38:15.563Z,60.30
2019-05-12T19:40:54.676Z,57.50
2019-05-12T19:43:17.846Z,51.70
2019-05-12T19:45:53.566Z,48.30
2019-05-12T19:48:24.920Z,43.28
2019-05-12T19:53:23.894Z,40.95
2019-05-12T19:58:23.921Z,42.25
2019-05-12T20:00:54.441Z,45.07
2019-05-12T20:03:24.665Z,44.60
2019-05-12T20:05:54.819Z,45.55
2019-05-12T20:08:24.985Z,44.83
2019-05-12T20:10:55.033Z,38.30
2019-05-12T20:13:29.528Z,37.95
2019-05-12T20:15:56.836Z,39.70
2019-05-12T20:18:26.905Z,38.80
2019-05-12T20:20:57.086Z,42.70
2019-05-12T20:23:28.039Z,40.13
2019-05-12T20:25:58.234Z,37.60
2019-05-12T20:28:28.443Z,37.03
2019-05-12T20:31:03.896Z,34.70
2019-05-12T20:33:30.175Z,34.00
2019-05-12T20:36:00.294Z,32.67
2019-05-12T20:38:34.272Z,32.55
2019-05-12T20:41:04.584Z,34.73
2019-05-12T20:43:38.128Z,37.08
2019-05-12T20:48:34.659Z,40.78
2019-05-12T20:51:08.880Z,36.28
2019-05-12T20:56:06.610Z,40.15
2019-05-12T20:58:43.063Z,36.98
2019-05-12T21:01:08.409Z,37.70
2019-05-12T21:03:39.843Z,41.80
2019-05-12T21:06:10.311Z,41.15
2019-05-12T21:08:44.914Z,39.65
2019-05-12T21:13:43.944Z,42.20
2019-05-12T21:16:17.624Z,41.10
2019-05-12T21:18:50.682Z,38.67
2019-05-12T21:21:17.812Z,42.80
2019-05-12T21:23:53.938Z,41.92
2019-05-12T21:28:48.687Z,40.95
2019-05-12T21:31:20.577Z,37.28
2019-05-12T21:33:50.875Z,41.55
2019-05-12T21:36:24.363Z,39.63
2019-05-12T21:38:54.166Z,37.00
2019-05-12T21:41:24.695Z,32.90
2019-05-12T21:43:59.860Z,43.92
2019-05-12T21:48:56.219Z,39.42
2019-05-12T21:51:27.486Z,36.83
2019-05-12T21:53:57.808Z,35.55
2019-05-12T21:56:28.068Z,35.80
2019-05-12T21:58:58.478Z,30.77
2019-05-12T22:01:28.974Z,29.75
2019-05-12T22:04:02.585Z,28.15
2019-05-12T22:06:30.765Z,27.90
2019-05-12T22:09:03.213Z,26.50
2019-05-12T22:11:34.610Z,27.32
2019-05-12T22:14:05.100Z,25.97
2019-05-12T22:16:43.554Z,25.08
2019-05-12T22:19:09.602Z,26.48
2019-05-12T22:21:44.481Z,30.10
2019-05-12T22:24:14.414Z,26.57
2019-05-12T22:29:14.399Z,26.87
2019-05-12T22:31:48.072Z,27.25
2019-05-12T22:36:54.649Z,29.52
2019-05-12T22:39:17.186Z,28.87
2019-05-12T22:41:47.317Z,25.15
2019-05-12T22:44:20.867Z,25.37
2019-05-12T22:46:49.302Z,26.55
2019-05-12T22:49:21.265Z,26.70
2019-05-12T22:54:23.855Z,27.00
2019-05-12T22:56:55.237Z,25.68
2019-05-12T22:59:25.507Z,30.02
2019-05-12T23:01:55.690Z,30.02
2019-05-12T23:04:34.444Z,30.48
2019-05-12T23:06:57.718Z,30.88
2019-05-12T23:09:30.068Z,23.38
2019-05-12T23:11:59.700Z,24.95
2019-05-12T23:14:29.866Z,26.40
2019-05-12T23:17:05.146Z,24.40
2019-05-12T23:19:34.052Z,22.82
2019-05-12T23:22:04.575Z,24.77
2019-05-12T23:24:37.295Z,24.92
2019-05-12T23:27:08.898Z,22.35
2019-05-12T23:32:12.038Z,23.40
2019-05-12T23:34:44.928Z,21.55
2019-05-12T23:39:44.233Z,21.55
2019-05-12T23:42:14.718Z,21.60
2019-05-12T23:44:44.929Z,22.30
2019-05-12T23:47:15.045Z,23.57
2019-05-12T23:49:45.147Z,26.27
2019-05-12T23:52:15.327Z,23.75
2019-05-12T23:54:45.454Z,24.15
2019-05-12T23:57:15.859Z,23.75
2019-05-12T23:59:47.150Z,25.77
